createdAt,value
2022-09-06T00:00:16.936Z,1.83
2022-09-06T00:02:44.889Z,1.90
2022-09-06T00:05:12.464Z,2.03
2022-09-06T00:07:39.633Z,2.13
2022-09-06T00:10:06.643Z,1.92
2022-09-06T00:12:33.681Z,2.00
2022-09-06T00:15:00.537Z,2.15
2022-09-06T00:17:27.393Z,2.30
2022-09-06T00:19:54.261Z,1.90
2022-09-06T00:22:20.945Z,2.05
2022-09-06T00:24:47.798Z,2.10
2022-09-06T00:27:14.556Z,2.10
2022-09-06T00:29:41.350Z,2.13
2022-09-06T00:32:09.126Z,2.17
2022-09-06T00:34:35.864Z,2.15
2022-09-06T00:37:02.631Z,2.00
2022-09-06T00:39:29.398Z,2.20
2022-09-06T00:41:56.201Z,2.03
2022-09-06T00:44:23.289Z,2.10
2022-09-06T00:46:51.311Z,2.10
2022-09-06T00:49:25.560Z,2.30
2022-09-06T00:51:55.488Z,2.17
2022-09-06T00:54:22.499Z,2.13
2022-09-06T00:56:49.881Z,2.17
2022-09-06T00:59:16.862Z,2.20
2022-09-06T01:01:44.097Z,2.00
2022-09-06T01:04:11.052Z,2.03
2022-09-06T01:07:03.020Z,2.05
2022-09-06T01:10:11.201Z,2.05
2022-09-06T01:12:53.340Z,2.13
2022-09-06T01:15:26.388Z,2.10
2022-09-06T01:17:56.300Z,2.00
2022-09-06T01:20:44.224Z,2.03
2022-09-06T01:23:35.566Z,2.08
2022-09-06T01:26:21.028Z,2.17
2022-09-06T01:28:48.241Z,1.50
2022-09-06T01:31:24.607Z,2.00
2022-09-06T01:34:07.064Z,2.22
2022-09-06T01:37:13.463Z,2.20
2022-09-06T01:39:41.670Z,2.80
2022-09-06T01:42:18.612Z,2.90
2022-09-06T01:44:54.120Z,3.15
2022-09-06T01:47:42.109Z,3.20
2022-09-06T01:50:48.020Z,3.33
2022-09-06T01:53:44.606Z,3.60
2022-09-06T01:56:43.710Z,3.25
2022-09-06T01:59:26.115Z,3.72
2022-09-06T02:02:06.778Z,3.65
2022-09-06T02:04:57.245Z,3.58
2022-09-06T02:07:26.574Z,3.65
2022-09-06T02:09:59.228Z,4.57
2022-09-06T02:12:28.314Z,4.32
2022-09-06T02:15:03.001Z,4.00
2022-09-06T02:17:37.569Z,3.90
2022-09-06T02:25:10.285Z,3.28
2022-09-06T02:27:37.676Z,2.60
2022-09-06T02:30:06.010Z,3.20
2022-09-06T02:32:37.843Z,2.80
2022-09-06T02:35:09.709Z,2.97
2022-09-06T02:37:36.461Z,2.72
2022-09-06T02:40:03.989Z,2.40
2022-09-06T02:42:30.862Z,2.55
2022-09-06T02:44:57.561Z,2.50
2022-09-06T02:47:24.326Z,2.45
2022-09-06T02:49:51.029Z,2.35
2022-09-06T02:52:17.804Z,2.35
2022-09-06T02:54:45.258Z,2.30
2022-09-06T02:57:12.172Z,2.33
2022-09-06T02:59:38.878Z,2.00
2022-09-06T03:02:05.624Z,2.20
2022-09-06T03:04:32.882Z,1.80
2022-09-06T03:06:59.604Z,1.95
2022-09-06T03:09:26.489Z,1.70
2022-09-06T03:11:53.257Z,1.90
2022-09-06T03:14:20.037Z,1.60
2022-09-06T03:16:46.862Z,1.63
2022-09-06T03:19:13.615Z,1.70
2022-09-06T03:21:40.375Z,1.95
2022-09-06T03:24:07.141Z,2.22
2022-09-06T03:26:33.929Z,1.77
2022-09-06T03:29:00.657Z,2.03
2022-09-06T03:31:27.374Z,1.90
2022-09-06T03:33:54.324Z,2.00
2022-09-06T03:36:21.024Z,2.20
2022-09-06T03:38:47.873Z,1.88
2022-09-06T03:41:14.597Z,2.13
2022-09-06T03:43:41.430Z,2.22
2022-09-06T03:46:08.280Z,2.20
2022-09-06T03:48:35.154Z,2.03
2022-09-06T03:51:01.889Z,2.25
2022-09-06T03:53:29.249Z,2.53
2022-09-06T03:55:57.699Z,2.20
2022-09-06T03:58:28.263Z,2.20
2022-09-06T04:01:09.514Z,2.22
2022-09-06T04:03:37.453Z,2.10
2022-09-06T04:06:05.666Z,2.58
2022-09-06T04:08:32.862Z,2.53
2022-09-06T04:10:59.963Z,2.63
2022-09-06T04:13:28.208Z,2.45
2022-09-06T04:15:55.144Z,2.70
2022-09-06T04:18:22.293Z,2.40
2022-09-06T04:20:50.202Z,2.30
2022-09-06T04:23:17.578Z,2.58
2022-09-06T04:25:48.740Z,2.38
2022-09-06T04:28:16.170Z,2.50
2022-09-06T04:30:43.019Z,2.55
2022-09-06T04:33:09.715Z,2.40
2022-09-06T04:35:36.784Z,2.05
2022-09-06T04:38:04.204Z,2.20
2022-09-06T04:40:30.923Z,2.33
2022-09-06T04:42:57.647Z,2.50
2022-09-06T04:45:24.896Z,2.30
2022-09-06T04:47:51.795Z,2.55
2022-09-06T04:50:18.606Z,2.47
2022-09-06T04:52:45.329Z,2.50
2022-09-06T04:55:12.052Z,2.13
2022-09-06T04:57:43.674Z,2.25
2022-09-06T05:00:12.277Z,1.80
2022-09-06T05:02:39.144Z,1.58
2022-09-06T05:05:06.538Z,1.90
2022-09-06T05:07:33.345Z,1.50
2022-09-06T05:10:00.082Z,1.73
2022-09-06T05:12:27.294Z,1.70
2022-09-06T05:14:53.965Z,1.60
2022-09-06T05:17:20.773Z,1.95
2022-09-06T05:19:48.387Z,1.92
2022-09-06T05:22:15.198Z,2.08
2022-09-06T05:24:41.973Z,2.13
2022-09-06T05:27:09.011Z,2.10
2022-09-06T05:29:35.838Z,2.22
2022-09-06T05:32:02.873Z,2.67
2022-09-06T05:34:29.690Z,2.28
2022-09-06T05:36:56.365Z,2.20
2022-09-06T05:39:23.937Z,2.33
2022-09-06T05:41:50.667Z,2.80
2022-09-06T05:44:17.350Z,2.63
2022-09-06T05:46:45.441Z,2.88
2022-09-06T05:49:13.210Z,2.40
2022-09-06T05:51:40.549Z,2.70
2022-09-06T05:54:07.930Z,2.70
2022-09-06T05:56:34.768Z,2.50
2022-09-06T05:59:01.768Z,2.75
2022-09-06T06:01:31.791Z,2.78
2022-09-06T06:04:00.691Z,2.72
2022-09-06T06:06:30.119Z,3.00
2022-09-06T06:08:57.342Z,2.40
2022-09-06T06:11:25.865Z,2.72
2022-09-06T06:13:53.030Z,2.58
2022-09-06T06:16:22.025Z,3.08
2022-09-06T06:18:52.204Z,2.70
2022-09-06T06:21:24.741Z,2.97
2022-09-06T06:23:53.635Z,2.95
2022-09-06T06:26:20.502Z,2.60
2022-09-06T06:28:47.429Z,2.88
2022-09-06T06:31:14.628Z,2.50
2022-09-06T06:33:41.738Z,2.83
2022-09-06T06:36:23.277Z,2.85
2022-09-06T06:38:51.572Z,3.10
2022-09-06T06:41:19.667Z,3.00
2022-09-06T06:43:46.412Z,2.75
2022-09-06T06:46:15.253Z,2.85
2022-09-06T06:48:43.762Z,2.80
2022-09-06T06:51:12.636Z,3.05
2022-09-06T06:53:39.506Z,3.17
2022-09-06T06:56:19.497Z,2.75
2022-09-06T06:58:48.741Z,3.25
2022-09-06T07:01:20.642Z,3.20
2022-09-06T07:03:47.740Z,2.67
2022-09-06T07:06:14.954Z,3.08
2022-09-06T07:08:42.284Z,2.60
2022-09-06T07:11:11.266Z,2.90
2022-09-06T07:13:38.245Z,3.58
2022-09-06T07:16:23.324Z,2.90
2022-09-06T07:18:54.622Z,2.83
2022-09-06T07:21:42.216Z,3.00
2022-09-06T07:24:09.806Z,2.90
2022-09-06T07:26:38.536Z,2.80
2022-09-06T07:29:06.476Z,2.22
2022-09-06T07:34:21.009Z,2.70
2022-09-06T07:36:48.410Z,2.50
2022-09-06T07:39:15.464Z,2.08
2022-09-06T07:41:43.104Z,2.42
2022-09-06T07:44:09.936Z,2.40
2022-09-06T07:46:36.792Z,2.28
2022-09-06T07:49:07.446Z,2.47
2022-09-06T07:51:34.204Z,2.05
2022-09-06T07:56:47.936Z,2.03
2022-09-06T07:59:15.174Z,3.38
2022-09-06T08:01:42.390Z,3.20
2022-09-06T08:04:12.741Z,2.10
2022-09-06T08:09:28.901Z,2.20
2022-09-06T08:11:55.702Z,2.17
2022-09-06T08:14:22.562Z,2.30
2022-09-06T08:16:49.331Z,2.13
2022-09-06T08:19:16.767Z,2.35
2022-09-06T08:21:43.957Z,2.17
2022-09-06T08:24:11.219Z,1.70
2022-09-06T08:26:45.285Z,2.25
2022-09-06T08:29:12.469Z,2.33
2022-09-06T08:31:43.478Z,2.05
2022-09-06T08:34:12.659Z,2.47
2022-09-06T08:36:39.563Z,2.30
2022-09-06T08:39:09.779Z,2.40
2022-09-06T08:41:56.624Z,2.65
2022-09-06T08:47:19.255Z,2.63
2022-09-06T08:49:49.341Z,2.28
2022-09-06T08:52:23.201Z,2.30
2022-09-06T08:55:21.219Z,3.83
2022-09-06T08:58:08.715Z,2.38
2022-09-06T09:00:36.452Z,2.25
2022-09-06T09:03:16.502Z,2.30
2022-09-06T09:05:43.829Z,2.15
2022-09-06T09:08:28.987Z,2.70
2022-09-06T09:11:02.883Z,1.98
2022-09-06T09:13:55.406Z,2.75
2022-09-06T09:16:22.694Z,2.10
2022-09-06T09:18:52.698Z,2.13
2022-09-06T09:21:28.117Z,2.53
2022-09-06T09:24:01.468Z,2.33
2022-09-06T09:26:32.977Z,2.20
2022-09-06T09:29:07.517Z,2.33
2022-09-06T09:31:49.945Z,2.30
2022-09-06T09:34:38.918Z,2.75
2022-09-06T09:37:47.000Z,2.30
2022-09-06T09:40:25.838Z,2.47
2022-09-06T09:42:55.288Z,2.40
2022-09-06T09:45:31.705Z,2.35
2022-09-06T09:48:17.231Z,2.30
2022-09-06T09:50:44.022Z,2.10
2022-09-06T09:53:13.786Z,2.88
2022-09-06T09:55:41.546Z,2.22
2022-09-06T09:58:33.843Z,1.80
2022-09-06T10:01:20.657Z,2.10
2022-09-06T10:09:23.338Z,2.15
2022-09-06T10:11:59.453Z,1.98
2022-09-06T10:14:40.788Z,2.10
2022-09-06T10:17:07.556Z,2.55
2022-09-06T10:19:38.779Z,2.33
2022-09-06T10:22:31.409Z,2.17
2022-09-06T10:25:02.461Z,2.33
2022-09-06T10:27:29.177Z,2.40
2022-09-06T10:29:58.457Z,2.40
2022-09-06T10:32:29.226Z,2.10
2022-09-06T10:35:38.240Z,2.17
2022-09-06T10:38:26.326Z,2.30
2022-09-06T10:41:33.073Z,2.38
2022-09-06T10:44:32.122Z,2.55
2022-09-06T10:47:11.538Z,2.17
2022-09-06T10:49:40.661Z,2.88
2022-09-06T10:52:09.813Z,2.67
2022-09-06T10:54:38.740Z,2.10
2022-09-06T11:00:05.353Z,2.35
2022-09-06T11:02:48.634Z,2.45
2022-09-06T11:05:38.232Z,4.30
2022-09-06T11:08:47.490Z,3.67
2022-09-06T11:11:23.239Z,2.78
2022-09-06T11:13:50.207Z,2.53
2022-09-06T11:16:25.613Z,2.00
2022-09-06T11:18:59.602Z,2.40
2022-09-06T11:22:01.621Z,1.65
2022-09-06T11:24:45.225Z,2.53
2022-09-06T11:27:18.628Z,1.90
2022-09-06T11:29:48.420Z,1.70
2022-09-06T11:32:29.328Z,2.00
2022-09-06T11:35:01.433Z,2.10
2022-09-06T11:37:39.503Z,1.70
2022-09-06T11:42:54.325Z,1.75
2022-09-06T11:45:40.562Z,1.83
2022-09-06T11:48:26.481Z,2.60
2022-09-06T11:50:59.426Z,2.58
2022-09-06T11:53:29.044Z,2.55
2022-09-06T11:56:02.074Z,2.40
2022-09-06T11:58:42.702Z,2.70
2022-09-06T12:01:12.470Z,2.40
2022-09-06T12:04:04.123Z,2.20
2022-09-06T12:06:39.701Z,2.67
2022-09-06T12:09:38.222Z,2.55
2022-09-06T12:12:05.580Z,2.83
2022-09-06T12:14:46.146Z,2.55
2022-09-06T12:17:12.910Z,2.75
2022-09-06T12:19:50.195Z,2.70
2022-09-06T12:22:31.977Z,2.03
2022-09-06T12:25:00.986Z,2.42
2022-09-06T12:27:34.967Z,2.35
2022-09-06T12:30:04.365Z,1.92
2022-09-06T12:32:40.938Z,2.13
2022-09-06T12:38:13.511Z,2.35
2022-09-06T12:40:45.551Z,2.30
2022-09-06T12:43:14.766Z,2.05
2022-09-06T12:45:46.302Z,2.20
2022-09-06T12:48:35.260Z,2.45
2022-09-06T12:51:03.055Z,2.33
2022-09-06T12:53:31.609Z,2.30
2022-09-06T12:56:10.098Z,2.33
2022-09-06T12:58:38.776Z,2.72
2022-09-06T13:01:19.728Z,2.25
2022-09-06T13:04:09.606Z,2.30
2022-09-06T13:06:40.191Z,2.28
2022-09-06T13:09:09.787Z,2.28
2022-09-06T13:11:44.633Z,1.95
2022-09-06T13:14:23.943Z,2.00
2022-09-06T13:16:52.310Z,2.15
2022-09-06T13:19:34.044Z,1.80
2022-09-06T13:22:03.724Z,1.70
2022-09-06T13:24:43.275Z,1.80
2022-09-06T13:27:28.763Z,1.75
2022-09-06T13:30:10.102Z,1.42
2022-09-06T13:32:45.943Z,1.50
2022-09-06T13:35:23.936Z,1.23
2022-09-06T13:37:50.990Z,1.25
2022-09-06T13:41:10.077Z,1.10
2022-09-06T13:43:43.368Z,1.67
2022-09-06T13:46:11.753Z,1.70
2022-09-06T13:48:43.005Z,1.60
2022-09-06T13:51:10.301Z,1.42
2022-09-06T13:53:37.102Z,1.30
2022-09-06T13:56:05.037Z,1.60
2022-09-06T13:58:31.774Z,1.45
2022-09-06T14:00:58.790Z,1.45
2022-09-06T14:03:29.428Z,1.45
2022-09-06T14:05:56.542Z,1.60
2022-09-06T14:08:23.414Z,1.80
2022-09-06T14:10:51.507Z,2.10
2022-09-06T14:13:18.624Z,2.10
2022-09-06T14:15:46.821Z,2.00
2022-09-06T14:18:14.662Z,1.90
2022-09-06T14:20:42.185Z,1.92
2022-09-06T14:23:09.349Z,1.90
2022-09-06T14:25:37.537Z,1.50
2022-09-06T14:28:05.179Z,2.08
2022-09-06T14:30:32.256Z,1.70
2022-09-06T14:32:59.000Z,1.67
2022-09-06T14:35:26.043Z,1.70
2022-09-06T14:37:52.894Z,1.67
2022-09-06T14:40:19.717Z,2.42
2022-09-06T14:42:50.301Z,1.55
2022-09-06T14:45:18.615Z,1.70
2022-09-06T14:47:45.583Z,1.48
2022-09-06T14:50:12.605Z,1.60
2022-09-06T14:52:39.364Z,1.60
2022-09-06T14:55:06.540Z,1.55
2022-09-06T14:57:33.256Z,1.67
2022-09-06T15:00:00.724Z,1.60
2022-09-06T15:02:29.049Z,1.60
2022-09-06T15:04:55.979Z,1.73
2022-09-06T15:07:22.777Z,1.52
2022-09-06T15:09:51.028Z,1.42
2022-09-06T15:12:18.110Z,1.35
2022-09-06T15:14:44.821Z,1.40
2022-09-06T15:17:11.549Z,1.30
2022-09-06T15:19:41.963Z,1.30
2022-09-06T15:22:08.764Z,1.63
2022-09-06T15:24:36.680Z,1.27
2022-09-06T15:27:04.333Z,1.60
2022-09-06T15:29:31.858Z,1.15
2022-09-06T15:31:59.455Z,1.38
2022-09-06T15:34:26.795Z,1.20
2022-09-06T15:36:54.509Z,1.50
2022-09-06T15:39:21.399Z,1.20
2022-09-06T15:41:50.305Z,1.20
2022-09-06T15:44:19.062Z,1.20
2022-09-06T15:46:54.888Z,1.48
2022-09-06T15:49:28.092Z,1.52
2022-09-06T15:51:57.605Z,1.60
2022-09-06T15:54:44.469Z,1.65
2022-09-06T15:57:11.949Z,1.63
2022-09-06T15:59:40.171Z,1.67
2022-09-06T16:02:07.689Z,1.52
2022-09-06T16:04:34.524Z,1.65
2022-09-06T16:07:01.230Z,1.67
2022-09-06T16:09:31.539Z,1.48
2022-09-06T16:11:58.400Z,1.60
2022-09-06T16:14:25.367Z,1.30
2022-09-06T16:16:53.804Z,1.77
2022-09-06T16:19:20.848Z,1.25
2022-09-06T16:21:47.578Z,1.27
2022-09-06T16:24:14.929Z,1.50
2022-09-06T16:26:44.445Z,1.58
2022-09-06T16:29:12.976Z,1.30
2022-09-06T16:31:41.116Z,1.40
2022-09-06T16:34:09.547Z,1.48
2022-09-06T16:36:37.262Z,1.40
2022-09-06T16:39:04.898Z,1.52
2022-09-06T16:41:40.499Z,1.30
2022-09-06T16:44:08.558Z,1.40
2022-09-06T16:46:35.308Z,1.30
2022-09-06T16:49:03.087Z,1.33
2022-09-06T16:51:31.216Z,1.40
2022-09-06T16:53:59.090Z,1.30
2022-09-06T16:56:29.163Z,1.42
2022-09-06T16:58:58.567Z,1.60
2022-09-06T17:01:26.519Z,1.50
2022-09-06T17:03:53.787Z,1.70
2022-09-06T17:06:21.467Z,1.58
2022-09-06T17:08:48.397Z,1.90
2022-09-06T17:11:17.442Z,1.52
2022-09-06T17:13:45.877Z,1.90
2022-09-06T17:16:32.458Z,1.50
2022-09-06T17:19:01.611Z,1.63
2022-09-06T17:21:29.584Z,1.20
2022-09-06T17:23:58.674Z,1.70
2022-09-06T17:26:25.462Z,1.50
2022-09-06T17:28:52.349Z,1.90
2022-09-06T17:31:25.015Z,1.67
2022-09-06T17:33:53.223Z,1.58
2022-09-06T17:36:23.618Z,1.58
2022-09-06T17:38:53.645Z,1.60
2022-09-06T17:41:24.168Z,1.83
2022-09-06T17:43:53.774Z,1.70
2022-09-06T17:46:25.263Z,1.90
2022-09-06T17:48:54.846Z,1.52
2022-09-06T17:51:22.168Z,1.80
2022-09-06T17:53:48.969Z,1.77
2022-09-06T17:56:17.241Z,1.63
2022-09-06T17:58:44.723Z,1.73
2022-09-06T18:01:14.242Z,1.70
2022-09-06T18:03:42.412Z,1.85
2022-09-06T18:06:10.051Z,1.90
2022-09-06T18:08:38.111Z,1.52
2022-09-06T18:11:10.243Z,1.60
2022-09-06T18:13:37.094Z,1.73
2022-09-06T18:16:05.043Z,1.85
2022-09-06T18:18:32.878Z,1.70
2022-09-06T18:21:02.083Z,1.70
2022-09-06T18:23:30.039Z,1.80
2022-09-06T18:26:05.812Z,2.10
2022-09-06T18:28:34.595Z,1.55
2022-09-06T18:31:05.804Z,1.92
2022-09-06T18:33:32.809Z,1.70
2022-09-06T18:35:59.772Z,1.60
2022-09-06T18:38:26.849Z,1.63
2022-09-06T18:40:58.587Z,1.52
2022-09-06T18:43:31.036Z,1.90
2022-09-06T18:46:03.708Z,1.70
2022-09-06T18:48:34.264Z,1.90
2022-09-06T18:51:05.909Z,1.45
2022-09-06T18:53:33.704Z,1.75
2022-09-06T18:56:04.011Z,1.70
2022-09-06T18:58:30.891Z,1.77
2022-09-06T19:01:11.883Z,1.40
2022-09-06T19:03:39.736Z,1.65
2022-09-06T19:06:11.610Z,1.50
2022-09-06T19:08:39.638Z,1.55
2022-09-06T19:11:11.764Z,1.75
2022-09-06T19:13:40.452Z,1.95
2022-09-06T19:16:08.357Z,1.80
2022-09-06T19:18:35.983Z,2.00
2022-09-06T19:21:09.822Z,1.60
2022-09-06T19:23:38.632Z,1.90
2022-09-06T19:26:08.220Z,1.80
2022-09-06T19:28:36.026Z,1.83
2022-09-06T19:31:13.630Z,1.90
2022-09-06T19:33:41.435Z,1.80
2022-09-06T19:36:12.025Z,1.67
2022-09-06T19:39:01.932Z,1.77
2022-09-06T19:41:30.211Z,1.75
2022-09-06T19:43:58.007Z,1.70
2022-09-06T19:46:25.107Z,2.00
2022-09-06T19:48:53.983Z,1.95
2022-09-06T19:51:21.414Z,1.90
2022-09-06T19:53:50.201Z,1.85
2022-09-06T19:56:26.047Z,1.75
2022-09-06T19:59:12.888Z,1.80
2022-09-06T20:01:41.176Z,2.03
2022-09-06T20:04:10.676Z,2.10
2022-09-06T20:06:37.826Z,1.73
2022-09-06T20:09:06.970Z,2.17
2022-09-06T20:11:35.332Z,2.05
2022-09-06T20:14:02.300Z,2.60
2022-09-06T20:16:30.424Z,2.17
2022-09-06T20:19:01.522Z,1.95
2022-09-06T20:21:29.030Z,1.98
2022-09-06T20:23:57.111Z,2.28
2022-09-06T20:26:25.456Z,2.17
2022-09-06T20:28:56.790Z,2.10
2022-09-06T20:31:24.024Z,2.05
2022-09-06T20:33:50.817Z,2.42
2022-09-06T20:36:18.472Z,1.92
2022-09-06T20:38:46.639Z,2.40
2022-09-06T20:41:19.025Z,2.40
2022-09-06T20:43:50.199Z,1.95
2022-09-06T20:46:18.573Z,2.33
2022-09-06T20:48:45.898Z,2.50
2022-09-06T20:51:18.609Z,2.17
2022-09-06T20:53:51.987Z,2.40
2022-09-06T20:56:24.174Z,2.50
2022-09-06T20:58:53.884Z,2.05
2022-09-06T21:01:22.976Z,1.98
2022-09-06T21:03:58.303Z,2.20
2022-09-06T21:06:27.013Z,2.20
2022-09-06T21:08:54.042Z,2.10
2022-09-06T21:11:20.947Z,1.90
2022-09-06T21:13:55.857Z,1.98
2022-09-06T21:16:25.324Z,2.17
2022-09-06T21:18:53.739Z,1.92
2022-09-06T21:21:22.288Z,2.30
2022-09-06T21:23:49.670Z,2.20
2022-09-06T21:26:17.199Z,2.00
2022-09-06T21:28:45.497Z,2.00
2022-09-06T21:31:15.025Z,2.20
2022-09-06T21:33:46.839Z,2.10
2022-09-06T21:36:15.908Z,2.08
2022-09-06T21:38:44.370Z,2.00
2022-09-06T21:41:12.128Z,1.80
2022-09-06T21:43:38.914Z,2.00
2022-09-06T21:46:08.031Z,1.90
2022-09-06T21:48:38.974Z,2.03
2022-09-06T21:51:15.687Z,1.95
2022-09-06T21:53:44.463Z,1.75
2022-09-06T21:56:11.478Z,2.17
2022-09-06T21:58:38.414Z,1.75
2022-09-06T22:01:05.850Z,1.98
2022-09-06T22:03:35.915Z,1.90
2022-09-06T22:06:29.820Z,2.10
2022-09-06T22:08:58.104Z,1.80
2022-09-06T22:11:27.380Z,1.70
2022-09-06T22:13:54.321Z,2.50
2022-09-06T22:16:22.614Z,2.00
2022-09-06T22:18:49.966Z,1.60
2022-09-06T22:21:20.229Z,1.95
2022-09-06T22:23:54.630Z,1.95
2022-09-06T22:26:21.732Z,1.77
2022-09-06T22:28:53.471Z,1.50
2022-09-06T22:31:20.406Z,1.80
2022-09-06T22:33:47.301Z,2.00
2022-09-06T22:36:14.192Z,1.95
2022-09-06T22:38:40.999Z,1.52
2022-09-06T22:41:08.124Z,1.60
2022-09-06T22:43:35.170Z,1.70
2022-09-06T22:46:04.159Z,2.10
2022-09-06T22:48:31.403Z,1.50
2022-09-06T22:50:58.746Z,1.70
2022-09-06T22:53:25.530Z,1.52
2022-09-06T22:55:52.405Z,2.10
2022-09-06T22:58:19.149Z,1.70
2022-09-06T23:00:46.046Z,1.83
2022-09-06T23:03:12.894Z,1.60
2022-09-06T23:05:39.729Z,2.00
2022-09-06T23:08:06.592Z,2.05
2022-09-06T23:10:33.350Z,1.52
2022-09-06T23:13:00.222Z,1.50
2022-09-06T23:15:27.006Z,1.60
2022-09-06T23:17:53.806Z,1.50
2022-09-06T23:20:20.528Z,1.63
2022-09-06T23:22:47.411Z,1.80
2022-09-06T23:25:14.154Z,1.65
2022-09-06T23:27:41.018Z,1.50
2022-09-06T23:30:08.569Z,1.85
2022-09-06T23:32:35.651Z,1.63
2022-09-06T23:35:02.344Z,1.88
2022-09-06T23:37:29.050Z,1.50
2022-09-06T23:39:56.062Z,1.52
2022-09-06T23:42:23.027Z,1.80
2022-09-06T23:44:54.402Z,1.60
2022-09-06T23:47:21.118Z,1.90
2022-09-06T23:49:49.958Z,1.85
2022-09-06T23:52:17.584Z,1.50
2022-09-06T23:54:44.459Z,1.60
2022-09-06T23:57:11.278Z,1.70
2022-09-06T23:59:38.067Z,1.60
